sensor_id;sensor_type;location;lat;lon;timestamp;P1;durP1;ratioP1;P2;durP2;ratioP2
59824;SDS011;45703;50.898;6.054;2023-06-26T00:00:08;9.25;;;6.10;;
59824;SDS011;45703;50.898;6.054;2023-06-26T00:02:34;9.15;;;5.93;;
59824;SDS011;45703;50.898;6.054;2023-06-26T00:04:59;8.80;;;5.60;;
59824;SDS011;45703;50.898;6.054;2023-06-26T00:07:27;8.88;;;6.18;;
59824;SDS011;45703;50.898;6.054;2023-06-26T00:09:59;9.57;;;6.15;;
59824;SDS011;45703;50.898;6.054;2023-06-26T00:12:24;8.85;;;6.13;;
59824;SDS011;45703;50.898;6.054;2023-06-26T00:14:50;8.27;;;5.28;;
59824;SDS011;45703;50.898;6.054;2023-06-26T00:17:15;9.13;;;5.53;;
59824;SDS011;45703;50.898;6.054;2023-06-26T00:19:41;8.65;;;6.00;;
59824;SDS011;45703;50.898;6.054;2023-06-26T00:22:06;8.70;;;5.85;;
59824;SDS011;45703;50.898;6.054;2023-06-26T00:24:32;8.95;;;5.75;;
59824;SDS011;45703;50.898;6.054;2023-06-26T00:26:57;8.90;;;5.72;;
59824;SDS011;45703;50.898;6.054;2023-06-26T00:29:23;8.50;;;5.53;;
59824;SDS011;45703;50.898;6.054;2023-06-26T00:31:49;8.93;;;6.05;;
59824;SDS011;45703;50.898;6.054;2023-06-26T00:34:15;8.13;;;5.53;;
59824;SDS011;45703;50.898;6.054;2023-06-26T00:36:40;9.15;;;6.10;;
59824;SDS011;45703;50.898;6.054;2023-06-26T00:39:08;7.95;;;5.28;;
59824;SDS011;45703;50.898;6.054;2023-06-26T00:41:34;8.95;;;5.43;;
59824;SDS011;45703;50.898;6.054;2023-06-26T00:44:01;8.40;;;5.68;;
59824;SDS011;45703;50.898;6.054;2023-06-26T00:46:27;9.82;;;6.05;;
59824;SDS011;45703;50.898;6.054;2023-06-26T00:48:53;9.40;;;5.70;;
59824;SDS011;45703;50.898;6.054;2023-06-26T00:51:19;9.70;;;6.05;;
59824;SDS011;45703;50.898;6.054;2023-06-26T00:53:45;9.52;;;6.35;;
59824;SDS011;45703;50.898;6.054;2023-06-26T00:56:10;8.52;;;5.53;;
59824;SDS011;45703;50.898;6.054;2023-06-26T00:58:36;9.43;;;5.80;;
59824;SDS011;45703;50.898;6.054;2023-06-26T01:01:02;9.10;;;5.82;;
59824;SDS011;45703;50.898;6.054;2023-06-26T01:03:28;8.57;;;5.28;;
59824;SDS011;45703;50.898;6.054;2023-06-26T01:05:55;10.43;;;5.80;;
59824;SDS011;45703;50.898;6.054;2023-06-26T01:08:24;8.70;;;5.25;;
59824;SDS011;45703;50.898;6.054;2023-06-26T01:10:50;9.05;;;5.78;;
59824;SDS011;45703;50.898;6.054;2023-06-26T01:13:16;9.27;;;5.38;;
59824;SDS011;45703;50.898;6.054;2023-06-26T01:15:42;8.55;;;5.55;;
59824;SDS011;45703;50.898;6.054;2023-06-26T01:18:08;9.07;;;5.05;;
59824;SDS011;45703;50.898;6.054;2023-06-26T01:20:37;8.10;;;5.03;;
59824;SDS011;45703;50.898;6.054;2023-06-26T01:23:14;8.90;;;5.45;;
59824;SDS011;45703;50.898;6.054;2023-06-26T01:26:22;9.32;;;5.35;;
59824;SDS011;45703;50.898;6.054;2023-06-26T01:28:51;10.90;;;5.95;;
59824;SDS011;45703;50.898;6.054;2023-06-26T01:33:44;10.27;;;5.30;;
59824;SDS011;45703;50.898;6.054;2023-06-26T01:36:11;8.90;;;5.75;;
59824;SDS011;45703;50.898;6.054;2023-06-26T01:38:37;8.85;;;5.70;;
59824;SDS011;45703;50.898;6.054;2023-06-26T01:41:03;8.15;;;5.10;;
59824;SDS011;45703;50.898;6.054;2023-06-26T01:46:39;9.82;;;5.72;;
59824;SDS011;45703;50.898;6.054;2023-06-26T01:49:10;8.48;;;5.25;;
59824;SDS011;45703;50.898;6.054;2023-06-26T01:51:42;9.57;;;5.80;;
59824;SDS011;45703;50.898;6.054;2023-06-26T01:54:17;9.10;;;5.70;;
59824;SDS011;45703;50.898;6.054;2023-06-26T01:56:45;9.10;;;5.60;;
59824;SDS011;45703;50.898;6.054;2023-06-26T01:59:14;8.90;;;5.72;;
59824;SDS011;45703;50.898;6.054;2023-06-26T02:01:39;9.20;;;6.15;;
59824;SDS011;45703;50.898;6.054;2023-06-26T02:04:05;10.75;;;5.90;;
59824;SDS011;45703;50.898;6.054;2023-06-26T02:06:30;10.75;;;5.60;;
59824;SDS011;45703;50.898;6.054;2023-06-26T02:08:56;9.30;;;5.53;;
59824;SDS011;45703;50.898;6.054;2023-06-26T02:11:21;8.98;;;6.10;;
59824;SDS011;45703;50.898;6.054;2023-06-26T02:13:47;9.32;;;5.60;;
59824;SDS011;45703;50.898;6.054;2023-06-26T02:16:13;8.75;;;5.25;;
59824;SDS011;45703;50.898;6.054;2023-06-26T02:18:38;9.30;;;5.63;;
59824;SDS011;45703;50.898;6.054;2023-06-26T02:21:03;9.85;;;5.63;;
59824;SDS011;45703;50.898;6.054;2023-06-26T02:23:29;9.57;;;5.40;;
59824;SDS011;45703;50.898;6.054;2023-06-26T02:25:55;9.43;;;5.13;;
59824;SDS011;45703;50.898;6.054;2023-06-26T02:28:20;8.65;;;5.60;;
59824;SDS011;45703;50.898;6.054;2023-06-26T02:30:46;9.15;;;4.90;;
59824;SDS011;45703;50.898;6.054;2023-06-26T02:33:11;10.23;;;5.80;;
59824;SDS011;45703;50.898;6.054;2023-06-26T02:35:36;9.30;;;5.55;;
59824;SDS011;45703;50.898;6.054;2023-06-26T02:38:02;10.82;;;6.20;;
59824;SDS011;45703;50.898;6.054;2023-06-26T02:40:27;9.93;;;6.10;;
59824;SDS011;45703;50.898;6.054;2023-06-26T02:42:52;10.68;;;5.80;;
59824;SDS011;45703;50.898;6.054;2023-06-26T02:45:18;9.60;;;5.57;;
59824;SDS011;45703;50.898;6.054;2023-06-26T02:47:43;11.77;;;5.88;;
59824;SDS011;45703;50.898;6.054;2023-06-26T02:50:09;9.40;;;5.82;;
59824;SDS011;45703;50.898;6.054;2023-06-26T02:52:34;9.52;;;5.90;;
59824;SDS011;45703;50.898;6.054;2023-06-26T02:55:00;10.10;;;5.85;;
59824;SDS011;45703;50.898;6.054;2023-06-26T02:57:25;8.60;;;5.45;;
59824;SDS011;45703;50.898;6.054;2023-06-26T02:59:50;8.73;;;5.10;;
59824;SDS011;45703;50.898;6.054;2023-06-26T03:02:16;12.60;;;5.75;;
59824;SDS011;45703;50.898;6.054;2023-06-26T03:04:41;8.65;;;5.30;;
59824;SDS011;45703;50.898;6.054;2023-06-26T03:07:08;9.57;;;5.28;;
59824;SDS011;45703;50.898;6.054;2023-06-26T03:09:33;10.30;;;5.47;;
59824;SDS011;45703;50.898;6.054;2023-06-26T03:11:59;8.73;;;4.85;;
59824;SDS011;45703;50.898;6.054;2023-06-26T03:14:24;11.10;;;5.30;;
59824;SDS011;45703;50.898;6.054;2023-06-26T03:16:50;9.15;;;4.63;;
59824;SDS011;45703;50.898;6.054;2023-06-26T03:19:17;9.30;;;5.13;;
59824;SDS011;45703;50.898;6.054;2023-06-26T03:21:43;9.82;;;5.05;;
59824;SDS011;45703;50.898;6.054;2023-06-26T03:24:08;9.02;;;4.75;;
59824;SDS011;45703;50.898;6.054;2023-06-26T03:26:34;9.07;;;4.90;;
59824;SDS011;45703;50.898;6.054;2023-06-26T03:28:59;11.68;;;4.85;;
59824;SDS011;45703;50.898;6.054;2023-06-26T03:31:24;8.90;;;4.15;;
59824;SDS011;45703;50.898;6.054;2023-06-26T03:33:50;9.20;;;4.82;;
59824;SDS011;45703;50.898;6.054;2023-06-26T03:36:15;8.43;;;4.20;;
59824;SDS011;45703;50.898;6.054;2023-06-26T03:38:41;9.18;;;4.70;;
59824;SDS011;45703;50.898;6.054;2023-06-26T03:41:06;9.55;;;4.95;;
59824;SDS011;45703;50.898;6.054;2023-06-26T03:43:32;10.02;;;5.10;;
59824;SDS011;45703;50.898;6.054;2023-06-26T03:45:57;11.00;;;5.20;;
59824;SDS011;45703;50.898;6.054;2023-06-26T03:48:22;9.90;;;5.57;;
59824;SDS011;45703;50.898;6.054;2023-06-26T03:50:48;9.73;;;5.47;;
59824;SDS011;45703;50.898;6.054;2023-06-26T03:53:14;9.82;;;5.32;;
59824;SDS011;45703;50.898;6.054;2023-06-26T03:55:39;9.68;;;5.47;;
59824;SDS011;45703;50.898;6.054;2023-06-26T03:58:04;10.07;;;5.93;;
59824;SDS011;45703;50.898;6.054;2023-06-26T04:00:30;10.27;;;6.25;;
59824;SDS011;45703;50.898;6.054;2023-06-26T04:02:55;11.40;;;5.32;;
59824;SDS011;45703;50.898;6.054;2023-06-26T04:05:21;10.85;;;5.43;;
59824;SDS011;45703;50.898;6.054;2023-06-26T04:07:49;9.00;;;4.95;;
59824;SDS011;45703;50.898;6.054;2023-06-26T04:10:16;10.07;;;4.68;;
59824;SDS011;45703;50.898;6.054;2023-06-26T04:12:42;10.40;;;4.93;;
59824;SDS011;45703;50.898;6.054;2023-06-26T04:15:07;8.80;;;4.70;;
59824;SDS011;45703;50.898;6.054;2023-06-26T04:17:33;11.30;;;4.97;;
59824;SDS011;45703;50.898;6.054;2023-06-26T04:19:58;9.60;;;5.38;;
59824;SDS011;45703;50.898;6.054;2023-06-26T04:22:24;10.32;;;5.22;;
59824;SDS011;45703;50.898;6.054;2023-06-26T04:24:51;9.68;;;4.53;;
59824;SDS011;45703;50.898;6.054;2023-06-26T04:27:17;9.18;;;4.78;;
59824;SDS011;45703;50.898;6.054;2023-06-26T04:29:43;10.52;;;4.50;;
59824;SDS011;45703;50.898;6.054;2023-06-26T04:32:08;9.57;;;4.88;;
59824;SDS011;45703;50.898;6.054;2023-06-26T04:34:34;8.98;;;4.47;;
59824;SDS011;45703;50.898;6.054;2023-06-26T04:37:01;9.48;;;4.07;;
59824;SDS011;45703;50.898;6.054;2023-06-26T04:39:28;10.30;;;4.53;;
59824;SDS011;45703;50.898;6.054;2023-06-26T04:41:55;9.07;;;4.57;;
59824;SDS011;45703;50.898;6.054;2023-06-26T04:44:20;9.85;;;4.90;;
59824;SDS011;45703;50.898;6.054;2023-06-26T04:46:46;10.02;;;4.18;;
59824;SDS011;45703;50.898;6.054;2023-06-26T04:49:11;8.38;;;3.80;;
59824;SDS011;45703;50.898;6.054;2023-06-26T04:51:36;8.73;;;3.63;;
59824;SDS011;45703;50.898;6.054;2023-06-26T04:54:08;9.85;;;4.45;;
59824;SDS011;45703;50.898;6.054;2023-06-26T04:56:34;10.10;;;4.20;;
59824;SDS011;45703;50.898;6.054;2023-06-26T04:59:00;9.45;;;4.07;;
59824;SDS011;45703;50.898;6.054;2023-06-26T05:01:26;9.57;;;4.00;;
59824;SDS011;45703;50.898;6.054;2023-06-26T05:03:54;8.13;;;3.90;;
59824;SDS011;45703;50.898;6.054;2023-06-26T05:06:23;9.73;;;3.72;;
59824;SDS011;45703;50.898;6.054;2023-06-26T05:08:48;8.93;;;3.53;;
59824;SDS011;45703;50.898;6.054;2023-06-26T05:11:14;9.18;;;4.05;;
59824;SDS011;45703;50.898;6.054;2023-06-26T05:13:39;7.88;;;3.75;;
59824;SDS011;45703;50.898;6.054;2023-06-26T05:16:05;10.45;;;3.80;;
59824;SDS011;45703;50.898;6.054;2023-06-26T05:18:31;9.57;;;3.35;;
59824;SDS011;45703;50.898;6.054;2023-06-26T05:20:56;7.80;;;3.33;;
59824;SDS011;45703;50.898;6.054;2023-06-26T05:23:22;9.50;;;3.70;;
59824;SDS011;45703;50.898;6.054;2023-06-26T05:25:50;8.77;;;3.70;;
59824;SDS011;45703;50.898;6.054;2023-06-26T05:28:16;10.02;;;3.72;;
59824;SDS011;45703;50.898;6.054;2023-06-26T05:30:41;8.07;;;3.30;;
59824;SDS011;45703;50.898;6.054;2023-06-26T05:33:07;9.98;;;3.38;;
59824;SDS011;45703;50.898;6.054;2023-06-26T05:35:35;8.43;;;3.83;;
59824;SDS011;45703;50.898;6.054;2023-06-26T05:38:01;9.00;;;3.45;;
59824;SDS011;45703;50.898;6.054;2023-06-26T05:40:27;9.13;;;3.80;;
59824;SDS011;45703;50.898;6.054;2023-06-26T05:42:52;8.65;;;3.45;;
59824;SDS011;45703;50.898;6.054;2023-06-26T05:45:18;8.43;;;3.72;;
59824;SDS011;45703;50.898;6.054;2023-06-26T05:47:43;9.13;;;3.58;;
59824;SDS011;45703;50.898;6.054;2023-06-26T05:50:09;8.50;;;3.65;;
59824;SDS011;45703;50.898;6.054;2023-06-26T05:52:35;9.38;;;3.78;;
59824;SDS011;45703;50.898;6.054;2023-06-26T05:55:02;10.18;;;3.65;;
59824;SDS011;45703;50.898;6.054;2023-06-26T05:57:28;8.70;;;3.97;;
59824;SDS011;45703;50.898;6.054;2023-06-26T05:59:55;9.90;;;3.70;;
59824;SDS011;45703;50.898;6.054;2023-06-26T06:02:20;10.82;;;3.85;;
59824;SDS011;45703;50.898;6.054;2023-06-26T06:04:46;10.93;;;4.20;;
59824;SDS011;45703;50.898;6.054;2023-06-26T06:07:12;9.23;;;3.95;;
59824;SDS011;45703;50.898;6.054;2023-06-26T06:09:37;10.98;;;4.13;;
59824;SDS011;45703;50.898;6.054;2023-06-26T06:12:04;11.07;;;4.50;;
59824;SDS011;45703;50.898;6.054;2023-06-26T06:14:30;11.07;;;4.22;;
59824;SDS011;45703;50.898;6.054;2023-06-26T06:16:56;9.48;;;3.90;;
59824;SDS011;45703;50.898;6.054;2023-06-26T06:19:22;12.77;;;4.70;;
59824;SDS011;45703;50.898;6.054;2023-06-26T06:21:47;12.48;;;4.82;;
59824;SDS011;45703;50.898;6.054;2023-06-26T06:24:13;9.75;;;4.80;;
59824;SDS011;45703;50.898;6.054;2023-06-26T06:26:39;9.77;;;4.10;;
59824;SDS011;45703;50.898;6.054;2023-06-26T06:29:04;9.68;;;4.50;;
59824;SDS011;45703;50.898;6.054;2023-06-26T06:31:29;10.52;;;4.55;;
59824;SDS011;45703;50.898;6.054;2023-06-26T06:33:55;9.63;;;4.50;;
59824;SDS011;45703;50.898;6.054;2023-06-26T06:36:20;11.52;;;4.32;;
59824;SDS011;45703;50.898;6.054;2023-06-26T06:38:46;11.13;;;4.32;;
59824;SDS011;45703;50.898;6.054;2023-06-26T06:41:11;10.20;;;4.57;;
59824;SDS011;45703;50.898;6.054;2023-06-26T06:43:37;11.07;;;4.70;;
59824;SDS011;45703;50.898;6.054;2023-06-26T06:46:03;11.50;;;4.45;;
59824;SDS011;45703;50.898;6.054;2023-06-26T06:48:29;11.75;;;4.22;;
59824;SDS011;45703;50.898;6.054;2023-06-26T06:50:54;9.07;;;3.60;;
59824;SDS011;45703;50.898;6.054;2023-06-26T06:53:19;8.63;;;3.78;;
59824;SDS011;45703;50.898;6.054;2023-06-26T06:55:48;10.25;;;4.07;;
59824;SDS011;45703;50.898;6.054;2023-06-26T06:58:16;10.55;;;4.20;;
59824;SDS011;45703;50.898;6.054;2023-06-26T07:00:44;11.15;;;4.10;;
59824;SDS011;45703;50.898;6.054;2023-06-26T07:03:09;8.82;;;3.95;;
59824;SDS011;45703;50.898;6.054;2023-06-26T07:05:35;10.93;;;4.13;;
59824;SDS011;45703;50.898;6.054;2023-06-26T07:08:01;10.05;;;4.00;;
59824;SDS011;45703;50.898;6.054;2023-06-26T07:10:26;9.43;;;3.92;;
59824;SDS011;45703;50.898;6.054;2023-06-26T07:12:51;13.00;;;4.70;;
59824;SDS011;45703;50.898;6.054;2023-06-26T07:15:17;10.05;;;4.18;;
59824;SDS011;45703;50.898;6.054;2023-06-26T07:17:42;12.75;;;4.18;;
59824;SDS011;45703;50.898;6.054;2023-06-26T07:20:09;9.60;;;4.05;;
59824;SDS011;45703;50.898;6.054;2023-06-26T07:22:40;11.27;;;4.60;;
59824;SDS011;45703;50.898;6.054;2023-06-26T07:25:06;10.77;;;3.83;;
59824;SDS011;45703;50.898;6.054;2023-06-26T07:27:34;10.93;;;4.40;;
59824;SDS011;45703;50.898;6.054;2023-06-26T07:30:03;10.82;;;4.30;;
59824;SDS011;45703;50.898;6.054;2023-06-26T07:32:29;9.98;;;4.28;;
59824;SDS011;45703;50.898;6.054;2023-06-26T07:34:54;12.48;;;4.47;;
59824;SDS011;45703;50.898;6.054;2023-06-26T07:37:20;9.48;;;4.03;;
59824;SDS011;45703;50.898;6.054;2023-06-26T07:39:45;9.73;;;3.92;;
59824;SDS011;45703;50.898;6.054;2023-06-26T07:42:10;10.88;;;4.35;;
59824;SDS011;45703;50.898;6.054;2023-06-26T07:44:36;11.68;;;4.20;;
59824;SDS011;45703;50.898;6.054;2023-06-26T07:47:01;10.52;;;4.13;;
59824;SDS011;45703;50.898;6.054;2023-06-26T07:49:27;9.57;;;3.80;;
59824;SDS011;45703;50.898;6.054;2023-06-26T07:51:52;13.25;;;4.05;;
59824;SDS011;45703;50.898;6.054;2023-06-26T07:54:17;8.13;;;3.67;;
59824;SDS011;45703;50.898;6.054;2023-06-26T07:56:52;11.98;;;4.25;;
59824;SDS011;45703;50.898;6.054;2023-06-26T07:59:22;11.77;;;3.85;;
59824;SDS011;45703;50.898;6.054;2023-06-26T08:01:49;10.23;;;3.53;;
59824;SDS011;45703;50.898;6.054;2023-06-26T08:04:15;8.70;;;3.60;;
59824;SDS011;45703;50.898;6.054;2023-06-26T08:06:41;10.75;;;3.70;;
59824;SDS011;45703;50.898;6.054;2023-06-26T08:09:06;9.40;;;3.30;;
59824;SDS011;45703;50.898;6.054;2023-06-26T08:11:33;9.60;;;3.92;;
59824;SDS011;45703;50.898;6.054;2023-06-26T08:13:58;9.80;;;3.10;;
59824;SDS011;45703;50.898;6.054;2023-06-26T08:16:24;9.13;;;3.58;;
59824;SDS011;45703;50.898;6.054;2023-06-26T08:18:49;11.15;;;3.88;;
59824;SDS011;45703;50.898;6.054;2023-06-26T08:21:15;9.65;;;3.50;;
59824;SDS011;45703;50.898;6.054;2023-06-26T08:23:40;11.10;;;3.75;;
59824;SDS011;45703;50.898;6.054;2023-06-26T08:26:05;11.00;;;3.70;;
59824;SDS011;45703;50.898;6.054;2023-06-26T08:28:31;12.00;;;3.63;;
59824;SDS011;45703;50.898;6.054;2023-06-26T08:30:56;10.20;;;3.60;;
59824;SDS011;45703;50.898;6.054;2023-06-26T08:33:21;11.60;;;3.08;;
59824;SDS011;45703;50.898;6.054;2023-06-26T08:35:47;10.30;;;3.53;;
59824;SDS011;45703;50.898;6.054;2023-06-26T08:38:12;7.82;;;3.17;;
59824;SDS011;45703;50.898;6.054;2023-06-26T08:40:37;10.93;;;3.35;;
59824;SDS011;45703;50.898;6.054;2023-06-26T08:43:03;8.60;;;3.38;;
59824;SDS011;45703;50.898;6.054;2023-06-26T08:45:29;9.73;;;3.33;;
59824;SDS011;45703;50.898;6.054;2023-06-26T08:47:55;10.32;;;3.13;;
59824;SDS011;45703;50.898;6.054;2023-06-26T08:50:25;8.18;;;2.95;;
59824;SDS011;45703;50.898;6.054;2023-06-26T08:53:00;8.90;;;3.27;;
59824;SDS011;45703;50.898;6.054;2023-06-26T08:56:07;10.63;;;2.80;;
59824;SDS011;45703;50.898;6.054;2023-06-26T08:58:34;9.45;;;3.35;;
59824;SDS011;45703;50.898;6.054;2023-06-26T09:01:02;8.23;;;2.88;;
59824;SDS011;45703;50.898;6.054;2023-06-26T09:03:30;10.30;;;2.58;;
59824;SDS011;45703;50.898;6.054;2023-06-26T09:05:56;10.38;;;3.50;;
59824;SDS011;45703;50.898;6.054;2023-06-26T09:08:22;12.52;;;3.20;;
59824;SDS011;45703;50.898;6.054;2023-06-26T09:10:47;8.95;;;2.75;;
59824;SDS011;45703;50.898;6.054;2023-06-26T09:13:12;9.38;;;2.63;;
59824;SDS011;45703;50.898;6.054;2023-06-26T09:15:38;7.45;;;2.60;;
59824;SDS011;45703;50.898;6.054;2023-06-26T09:18:07;9.18;;;2.95;;
59824;SDS011;45703;50.898;6.054;2023-06-26T09:20:33;9.23;;;2.33;;
59824;SDS011;45703;50.898;6.054;2023-06-26T09:22:59;9.73;;;2.92;;
59824;SDS011;45703;50.898;6.054;2023-06-26T09:25:25;8.63;;;2.75;;
59824;SDS011;45703;50.898;6.054;2023-06-26T09:27:51;8.10;;;2.45;;
59824;SDS011;45703;50.898;6.054;2023-06-26T09:30:17;7.00;;;2.58;;
59824;SDS011;45703;50.898;6.054;2023-06-26T09:32:43;8.65;;;2.63;;
59824;SDS011;45703;50.898;6.054;2023-06-26T09:35:09;7.88;;;2.47;;
59824;SDS011;45703;50.898;6.054;2023-06-26T09:37:35;9.75;;;3.22;;
59824;SDS011;45703;50.898;6.054;2023-06-26T09:40:00;11.00;;;2.80;;
59824;SDS011;45703;50.898;6.054;2023-06-26T09:42:26;9.73;;;3.00;;
59824;SDS011;45703;50.898;6.054;2023-06-26T09:44:51;8.18;;;3.15;;
59824;SDS011;45703;50.898;6.054;2023-06-26T09:47:18;9.80;;;2.47;;
59824;SDS011;45703;50.898;6.054;2023-06-26T09:49:44;9.90;;;2.80;;
59824;SDS011;45703;50.898;6.054;2023-06-26T09:52:10;9.15;;;2.50;;
59824;SDS011;45703;50.898;6.054;2023-06-26T09:54:38;7.43;;;2.13;;
59824;SDS011;45703;50.898;6.054;2023-06-26T09:57:10;8.98;;;2.15;;
59824;SDS011;45703;50.898;6.054;2023-06-26T09:59:37;11.55;;;2.97;;
59824;SDS011;45703;50.898;6.054;2023-06-26T10:02:03;9.75;;;2.75;;
59824;SDS011;45703;50.898;6.054;2023-06-26T10:04:28;9.75;;;2.97;;
59824;SDS011;45703;50.898;6.054;2023-06-26T10:06:54;8.82;;;2.42;;
59824;SDS011;45703;50.898;6.054;2023-06-26T10:09:22;8.85;;;2.60;;
59824;SDS011;45703;50.898;6.054;2023-06-26T10:14:13;7.40;;;2.50;;
59824;SDS011;45703;50.898;6.054;2023-06-26T10:16:41;8.43;;;2.60;;
59824;SDS011;45703;50.898;6.054;2023-06-26T10:19:09;8.52;;;2.78;;
59824;SDS011;45703;50.898;6.054;2023-06-26T10:21:37;7.25;;;2.38;;
59824;SDS011;45703;50.898;6.054;2023-06-26T10:24:04;8.95;;;2.85;;
59824;SDS011;45703;50.898;6.054;2023-06-26T10:26:31;7.60;;;2.38;;
59824;SDS011;45703;50.898;6.054;2023-06-26T10:29:00;7.88;;;2.50;;
59824;SDS011;45703;50.898;6.054;2023-06-26T10:31:27;8.38;;;2.30;;
59824;SDS011;45703;50.898;6.054;2023-06-26T10:33:54;6.85;;;2.22;;
59824;SDS011;45703;50.898;6.054;2023-06-26T10:36:20;9.38;;;2.38;;
59824;SDS011;45703;50.898;6.054;2023-06-26T10:39:26;8.70;;;2.50;;
59824;SDS011;45703;50.898;6.054;2023-06-26T10:41:45;7.47;;;2.38;;
59824;SDS011;45703;50.898;6.054;2023-06-26T10:44:11;6.55;;;2.45;;
59824;SDS011;45703;50.898;6.054;2023-06-26T10:46:51;7.47;;;2.13;;
59824;SDS011;45703;50.898;6.054;2023-06-26T10:49:18;6.85;;;2.20;;
59824;SDS011;45703;50.898;6.054;2023-06-26T10:51:49;8.07;;;2.35;;
59824;SDS011;45703;50.898;6.054;2023-06-26T10:54:16;6.97;;;2.08;;
59824;SDS011;45703;50.898;6.054;2023-06-26T10:56:43;6.97;;;2.30;;
59824;SDS011;45703;50.898;6.054;2023-06-26T10:59:13;6.35;;;2.50;;
59824;SDS011;45703;50.898;6.054;2023-06-26T11:01:43;8.57;;;2.80;;
59824;SDS011;45703;50.898;6.054;2023-06-26T11:04:11;7.40;;;2.28;;
59824;SDS011;45703;50.898;6.054;2023-06-26T11:06:39;8.38;;;2.30;;
59824;SDS011;45703;50.898;6.054;2023-06-26T11:14:18;6.78;;;2.38;;
59824;SDS011;45703;50.898;6.054;2023-06-26T11:16:44;6.60;;;2.30;;
59824;SDS011;45703;50.898;6.054;2023-06-26T11:19:09;7.70;;;2.10;;
59824;SDS011;45703;50.898;6.054;2023-06-26T11:21:37;7.43;;;2.22;;
59824;SDS011;45703;50.898;6.054;2023-06-26T11:24:04;7.10;;;2.00;;
59824;SDS011;45703;50.898;6.054;2023-06-26T11:26:31;7.68;;;2.03;;
59824;SDS011;45703;50.898;6.054;2023-06-26T11:29:06;6.50;;;2.40;;
59824;SDS011;45703;50.898;6.054;2023-06-26T11:31:36;8.20;;;2.08;;
59824;SDS011;45703;50.898;6.054;2023-06-26T11:34:05;5.90;;;1.90;;
59824;SDS011;45703;50.898;6.054;2023-06-26T11:36:39;6.57;;;2.10;;
59824;SDS011;45703;50.898;6.054;2023-06-26T11:39:07;6.30;;;1.70;;
59824;SDS011;45703;50.898;6.054;2023-06-26T11:41:33;8.68;;;2.20;;
59824;SDS011;45703;50.898;6.054;2023-06-26T11:44:00;7.82;;;1.92;;
59824;SDS011;45703;50.898;6.054;2023-06-26T11:46:27;6.97;;;2.15;;
59824;SDS011;45703;50.898;6.054;2023-06-26T11:48:53;6.53;;;2.28;;
59824;SDS011;45703;50.898;6.054;2023-06-26T11:51:19;6.15;;;1.63;;
59824;SDS011;45703;50.898;6.054;2023-06-26T11:53:45;8.40;;;2.10;;
59824;SDS011;45703;50.898;6.054;2023-06-26T11:56:11;7.78;;;1.83;;
59824;SDS011;45703;50.898;6.054;2023-06-26T12:01:23;7.10;;;1.90;;
59824;SDS011;45703;50.898;6.054;2023-06-26T12:03:50;7.57;;;1.88;;
59824;SDS011;45703;50.898;6.054;2023-06-26T12:06:16;7.13;;;1.65;;
59824;SDS011;45703;50.898;6.054;2023-06-26T12:08:42;5.47;;;1.70;;
59824;SDS011;45703;50.898;6.054;2023-06-26T12:11:08;6.53;;;1.58;;
59824;SDS011;45703;50.898;6.054;2023-06-26T12:13:34;6.13;;;1.60;;
59824;SDS011;45703;50.898;6.054;2023-06-26T12:15:59;6.43;;;1.70;;
59824;SDS011;45703;50.898;6.054;2023-06-26T12:18:25;6.03;;;1.60;;
59824;SDS011;45703;50.898;6.054;2023-06-26T12:20:51;7.32;;;1.73;;
59824;SDS011;45703;50.898;6.054;2023-06-26T12:23:17;5.78;;;1.58;;
59824;SDS011;45703;50.898;6.054;2023-06-26T12:25:43;6.68;;;1.67;;
59824;SDS011;45703;50.898;6.054;2023-06-26T12:28:18;5.20;;;1.40;;
59824;SDS011;45703;50.898;6.054;2023-06-26T12:30:47;7.63;;;1.75;;
59824;SDS011;45703;50.898;6.054;2023-06-26T12:33:33;6.60;;;1.65;;
59824;SDS011;45703;50.898;6.054;2023-06-26T12:35:58;6.53;;;1.50;;
59824;SDS011;45703;50.898;6.054;2023-06-26T12:38:28;6.10;;;1.67;;
59824;SDS011;45703;50.898;6.054;2023-06-26T12:40:58;7.97;;;1.50;;
59824;SDS011;45703;50.898;6.054;2023-06-26T12:43:23;6.40;;;1.60;;
59824;SDS011;45703;50.898;6.054;2023-06-26T12:45:53;6.07;;;1.50;;
59824;SDS011;45703;50.898;6.054;2023-06-26T12:48:20;6.95;;;1.90;;
59824;SDS011;45703;50.898;6.054;2023-06-26T12:50:45;5.97;;;1.30;;
59824;SDS011;45703;50.898;6.054;2023-06-26T12:53:11;6.75;;;1.70;;
59824;SDS011;45703;50.898;6.054;2023-06-26T12:55:36;5.82;;;1.45;;
59824;SDS011;45703;50.898;6.054;2023-06-26T12:58:02;5.68;;;1.60;;
59824;SDS011;45703;50.898;6.054;2023-06-26T13:00:27;5.75;;;1.52;;
59824;SDS011;45703;50.898;6.054;2023-06-26T13:02:53;6.35;;;1.70;;
59824;SDS011;45703;50.898;6.054;2023-06-26T13:05:18;5.15;;;1.42;;
59824;SDS011;45703;50.898;6.054;2023-06-26T13:07:44;6.47;;;1.80;;
59824;SDS011;45703;50.898;6.054;2023-06-26T13:10:09;6.65;;;1.70;;
59824;SDS011;45703;50.898;6.054;2023-06-26T13:12:35;6.85;;;1.67;;
59824;SDS011;45703;50.898;6.054;2023-06-26T13:15:00;6.20;;;1.70;;
59824;SDS011;45703;50.898;6.054;2023-06-26T13:17:26;5.50;;;1.67;;
59824;SDS011;45703;50.898;6.054;2023-06-26T13:19:51;6.00;;;1.30;;
59824;SDS011;45703;50.898;6.054;2023-06-26T13:22:16;6.57;;;1.60;;
59824;SDS011;45703;50.898;6.054;2023-06-26T13:24:42;6.25;;;1.55;;
59824;SDS011;45703;50.898;6.054;2023-06-26T13:27:07;5.15;;;1.33;;
59824;SDS011;45703;50.898;6.054;2023-06-26T13:29:32;8.63;;;1.80;;
59824;SDS011;45703;50.898;6.054;2023-06-26T13:31:58;8.10;;;1.98;;
59824;SDS011;45703;50.898;6.054;2023-06-26T13:34:24;6.85;;;1.98;;
59824;SDS011;45703;50.898;6.054;2023-06-26T13:36:52;6.05;;;1.73;;
59824;SDS011;45703;50.898;6.054;2023-06-26T13:39:19;7.10;;;1.70;;
59824;SDS011;45703;50.898;6.054;2023-06-26T13:41:45;6.72;;;1.80;;
59824;SDS011;45703;50.898;6.054;2023-06-26T13:44:10;6.93;;;2.10;;
59824;SDS011;45703;50.898;6.054;2023-06-26T13:46:36;6.50;;;1.90;;
59824;SDS011;45703;50.898;6.054;2023-06-26T13:49:01;9.93;;;2.75;;
59824;SDS011;45703;50.898;6.054;2023-06-26T13:51:26;5.63;;;1.52;;
59824;SDS011;45703;50.898;6.054;2023-06-26T13:53:52;6.68;;;1.85;;
59824;SDS011;45703;50.898;6.054;2023-06-26T13:56:17;6.65;;;1.80;;
59824;SDS011;45703;50.898;6.054;2023-06-26T13:58:42;7.10;;;2.03;;
59824;SDS011;45703;50.898;6.054;2023-06-26T14:01:09;8.43;;;2.15;;
59824;SDS011;45703;50.898;6.054;2023-06-26T14:03:34;7.03;;;2.00;;
59824;SDS011;45703;50.898;6.054;2023-06-26T14:06:00;8.23;;;2.13;;
59824;SDS011;45703;50.898;6.054;2023-06-26T14:08:25;8.55;;;1.95;;
59824;SDS011;45703;50.898;6.054;2023-06-26T14:10:51;5.60;;;1.67;;
59824;SDS011;45703;50.898;6.054;2023-06-26T14:13:16;9.13;;;1.70;;
59824;SDS011;45703;50.898;6.054;2023-06-26T14:15:42;5.70;;;1.58;;
59824;SDS011;45703;50.898;6.054;2023-06-26T14:18:07;6.28;;;1.70;;
59824;SDS011;45703;50.898;6.054;2023-06-26T14:20:33;7.05;;;1.58;;
59824;SDS011;45703;50.898;6.054;2023-06-26T14:22:58;5.32;;;1.65;;
59824;SDS011;45703;50.898;6.054;2023-06-26T14:25:24;4.65;;;1.40;;
59824;SDS011;45703;50.898;6.054;2023-06-26T14:27:50;6.38;;;1.77;;
59824;SDS011;45703;50.898;6.054;2023-06-26T14:30:15;5.43;;;1.50;;
59824;SDS011;45703;50.898;6.054;2023-06-26T14:32:40;6.07;;;1.50;;
59824;SDS011;45703;50.898;6.054;2023-06-26T14:35:06;5.35;;;1.60;;
59824;SDS011;45703;50.898;6.054;2023-06-26T14:37:31;7.78;;;1.67;;
59824;SDS011;45703;50.898;6.054;2023-06-26T14:39:57;6.13;;;1.55;;
59824;SDS011;45703;50.898;6.054;2023-06-26T14:42:23;7.72;;;1.88;;
59824;SDS011;45703;50.898;6.054;2023-06-26T14:44:49;6.13;;;1.92;;
59824;SDS011;45703;50.898;6.054;2023-06-26T14:47:18;7.60;;;1.70;;
59824;SDS011;45703;50.898;6.054;2023-06-26T14:49:44;5.55;;;1.40;;
59824;SDS011;45703;50.898;6.054;2023-06-26T14:52:09;5.13;;;1.70;;
59824;SDS011;45703;50.898;6.054;2023-06-26T14:54:35;7.22;;;1.52;;
59824;SDS011;45703;50.898;6.054;2023-06-26T14:57:04;7.63;;;1.35;;